Time;durP1;ratioP1;P1;durP2;ratioP2;P2;SDS_P1;SDS_P2;PMS_P1;PMS_P2;Temp;Humidity;BMP_temperature;BMP_pressure;BME280_temperature;BME280_humidity;BME280_pressure;Samples;Min_cycle;Max_cycle;Signal;HPM_P1;HPM_P2
2022/01/19 00:01:19;;;;;;;8.93;4.57;;;-0.50;99.90;;;;;;4980395;28;20031;-82
2022/01/19 00:03:45;;;;;;;8.88;4.45;;;1.10;99.90;;;;;;4981205;28;20023;-82
2022/01/19 00:06:11;;;;;;;8.65;4.50;;;-0.60;99.90;;;;;;4977556;28;20058;-82
2022/01/19 00:08:38;;;;;;;10.75;4.88;;;0.20;99.90;;;;;;4975331;28;20027;-82
2022/01/19 00:11:04;;;;;;;6.72;4.28;;;0.70;99.90;;;;;;4975133;28;20097;-81
2022/01/19 00:13:30;;;;;;;9.60;4.20;;;-1.00;99.90;;;;;;4974099;28;20498;-81
2022/01/19 00:15:55;;;;;;;8.57;4.15;;;-0.60;99.90;;;;;;4955621;28;20037;-82
2022/01/19 00:18:24;;;;;;;7.60;4.43;;;-0.70;99.90;;;;;;4973194;28;20030;-82
2022/01/19 00:20:50;;;;;;;8.30;4.72;;;-0.90;99.90;;;;;;4958328;28;20019;-82
2022/01/19 00:23:16;;;;;;;9.20;4.63;;;-0.90;99.90;;;;;;4961894;28;20085;-82
2022/01/19 00:25:43;;;;;;;6.80;3.63;;;-0.90;99.90;;;;;;4961367;28;20031;-81
2022/01/19 00:28:09;;;;;;;6.43;3.45;;;-0.90;99.90;;;;;;4962149;28;20030;-81
2022/01/19 00:30:35;;;;;;;10.63;4.63;;;-0.90;99.90;;;;;;4962932;28;20039;-82
2022/01/19 00:33:01;;;;;;;11.10;5.35;;;-1.70;99.90;;;;;;4963474;28;20173;-82
2022/01/19 00:35:27;;;;;;;11.45;4.25;;;-1.40;99.90;;;;;;4980562;28;20064;-82
2022/01/19 00:37:53;;;;;;;10.32;4.65;;;-0.30;99.90;;;;;;4981243;28;20019;-81
2022/01/19 00:40:19;;;;;;;13.38;4.25;;;-1.40;99.90;;;;;;4963509;28;20031;-82
2022/01/19 00:42:45;;;;;;;7.72;3.83;;;-0.80;99.90;;;;;;4981222;28;20078;-80
2022/01/19 00:45:13;;;;;;;7.75;4.07;;;-1.80;99.90;;;;;;4960732;28;20081;-82
2022/01/19 00:47:40;;;;;;;7.20;4.13;;;-1.80;99.90;;;;;;4960797;28;20033;-82
2022/01/19 00:50:08;;;;;;;14.15;5.53;;;-1.50;99.90;;;;;;4962772;28;20066;-82
2022/01/19 00:52:36;;;;;;;11.88;5.05;;;-1.80;99.90;;;;;;4978888;28;20046;-81
2022/01/19 00:55:08;;;;;;;14.93;5.20;;;-0.50;99.90;;;;;;4961398;28;20027;-82
2022/01/19 00:57:34;;;;;;;10.50;4.88;;;-1.70;99.90;;;;;;4976164;28;20793;-81
2022/01/19 01:00:00;;;;;;;9.02;4.95;;;-1.70;99.90;;;;;;4975622;28;20162;-81
2022/01/19 01:02:26;;;;;;;8.65;3.67;;;-0.60;99.90;;;;;;4956704;28;20117;-81
2022/01/19 01:04:52;;;;;;;10.68;5.38;;;-1.00;99.90;;;;;;4957191;28;20123;-81
2022/01/19 01:07:17;;;;;;;13.63;5.18;;;-1.30;99.90;;;;;;4955359;28;20034;-80
2022/01/19 01:09:43;;;;;;;12.45;5.32;;;-0.40;99.90;;;;;;4955249;28;20248;-81
2022/01/19 01:12:19;;;;;;;9.45;4.60;;;-1.40;99.90;;;;;;4955044;28;20314;-81
2022/01/19 01:20:19;;;;;;;8.33;4.90;;;-1.40;99.90;;;;;;4961323;28;20039;-81
2022/01/19 01:22:45;;;;;;;11.90;4.22;;;-1.20;99.90;;;;;;4954664;28;20289;-80
2022/01/19 01:25:12;;;;;;;8.00;4.68;;;-0.70;99.90;;;;;;4954555;28;20089;-80
2022/01/19 01:27:38;;;;;;;11.23;4.95;;;-1.60;99.90;;;;;;4954078;28;20476;-80
2022/01/19 01:30:06;;;;;;;12.38;4.93;;;-0.50;99.90;;;;;;4951909;29;20015;-81
2022/01/19 01:32:32;;;;;;;11.05;5.78;;;-1.60;99.90;;;;;;4934240;29;20043;-80
2022/01/19 01:34:58;;;;;;;11.60;4.75;;;-0.90;99.90;;;;;;4951956;29;20061;-80
2022/01/19 01:37:24;;;;;;;7.90;4.15;;;-0.70;99.90;;;;;;4935001;29;20035;-80
2022/01/19 01:39:50;;;;;;;12.10;5.78;;;-1.00;99.90;;;;;;4953483;29;20030;-80
2022/01/19 01:42:19;;;;;;;9.40;5.00;;;-2.20;99.90;;;;;;4951602;28;20028;-81
2022/01/19 01:44:48;;;;;;;12.57;4.10;;;-1.60;99.90;;;;;;4935426;29;20036;-81
2022/01/19 01:47:16;;;;;;;;;;;-0.70;99.90;;;;;;4951211;29;20074;-81
2022/01/19 01:54:52;;;;;;;9.40;4.40;;;-1.20;99.90;;;;;;4972427;28;20089;-80
2022/01/19 01:57:18;;;;;;;8.50;4.70;;;-1.80;99.90;;;;;;4971281;28;20054;-81
2022/01/19 01:59:43;;;;;;;7.80;4.03;;;-1.60;99.90;;;;;;4954848;28;20050;-80
2022/01/19 02:02:09;;;;;;;15.13;5.90;;;-1.70;99.90;;;;;;4971398;28;20498;-81
2022/01/19 02:04:40;;;;;;;8.63;4.22;;;-1.90;99.90;;;;;;4953489;28;20383;-81
2022/01/19 02:09:55;;;;;;;9.25;4.50;;;-0.50;99.90;;;;;;4951324;29;20042;-82
2022/01/19 02:23:48;;;;;;;9.43;5.35;;;-2.10;99.90;;;;;;4952342;29;20559;-81
2022/01/19 02:26:13;;;;;;;11.30;5.20;;;-2.10;99.90;;;;;;4955715;28;20090;-81
2022/01/19 02:29:08;;;;;;;13.68;4.28;;;-1.60;99.90;;;;;;4952823;28;20031;-81
2022/01/19 02:42:13;;;;;;;12.02;5.32;;;-1.80;99.90;;;;;;4950254;29;20082;-81
2022/01/19 02:49:49;;;;;;;13.88;6.55;;;-1.90;99.90;;;;;;4950667;29;20023;-81
2022/01/19 02:52:17;;;;;;;12.75;5.55;;;-2.20;99.90;;;;;;4933424;29;20067;-81
2022/01/19 02:54:43;;;;;;;14.07;6.68;;;-2.30;99.90;;;;;;4933179;29;20023;-80
2022/01/19 02:57:11;;;;;;;10.43;5.47;;;-2.50;99.90;;;;;;4950798;29;20031;-80
2022/01/19 03:10:36;;;;;;;11.57;5.10;;;;;;;;;;4969460;28;20702;-80
2022/01/19 03:13:02;;;;;;;11.57;5.30;;;-2.80;99.90;;;;;;4969930;28;20125;-80
2022/01/19 03:15:28;;;;;;;13.35;5.32;;;-2.80;99.90;;;;;;4952719;28;20121;-78
2022/01/19 03:17:58;;;;;;;13.20;5.88;;;-3.00;99.90;;;;;;4952276;28;20093;-80
2022/01/19 03:20:24;;;;;;;13.65;6.00;;;-2.50;99.90;;;;;;4951444;28;20023;-81
2022/01/19 03:23:00;;;;;;;11.00;6.00;;;-1.70;99.90;;;;;;4951351;28;20496;-80
2022/01/19 03:25:26;;;;;;;18.95;7.50;;;-2.80;99.90;;;;;;4969584;28;20031;-80
2022/01/19 03:27:52;;;;;;;12.07;4.88;;;-2.70;99.90;;;;;;4934726;28;20082;-80
2022/01/19 03:30:20;;;;;;;11.65;4.72;;;-2.60;99.90;;;;;;4951313;28;20518;-81
2022/01/19 03:32:46;;;;;;;14.48;7.15;;;-2.40;99.90;;;;;;4952732;28;20047;-80
2022/01/19 03:35:14;;;;;;;16.10;6.18;;;-2.10;99.90;;;;;;4952430;28;20050;-80
2022/01/19 03:37:40;;;;;;;14.68;4.72;;;-2.40;99.90;;;;;;4951718;28;20110;-80
2022/01/19 03:40:08;;;;;;;12.23;5.15;;;-3.10;99.90;;;;;;4969692;28;20015;-80
2022/01/19 03:42:34;;;;;;;10.88;5.82;;;-3.20;99.90;;;;;;4968920;28;20030;-81
2022/01/19 03:44:59;;;;;;;11.80;5.40;;;-3.30;99.90;;;;;;4952194;28;20031;-80
2022/01/19 03:47:32;;;;;;;13.48;5.50;;;-3.40;99.90;;;;;;4951518;28;20085;-80
2022/01/19 03:49:57;;;;;;;13.60;5.72;;;-2.00;99.90;;;;;;4952173;28;20443;-80
2022/01/19 03:52:25;;;;;;;12.95;5.43;;;-1.80;99.90;;;;;;4952407;28;20093;-82
2022/01/19 03:54:50;;;;;;;13.98;5.65;;;-3.00;99.90;;;;;;4969730;28;20031;-83
2022/01/19 03:57:16;;;;;;;8.57;5.00;;;-2.70;99.90;;;;;;4954689;28;20026;-80
2022/01/19 03:59:42;;;;;;;21.10;5.55;;;-2.30;99.90;;;;;;4954440;28;20023;-79
2022/01/19 04:02:08;;;;;;;10.20;5.10;;;-2.10;99.90;;;;;;4955222;28;20093;-80
2022/01/19 04:04:43;;;;;;;13.30;5.22;;;-2.00;99.90;;;;;;4955819;28;20027;-80
2022/01/19 04:07:09;;;;;;;17.02;5.30;;;-3.30;99.90;;;;;;4973013;28;20035;-80
2022/01/19 04:09:40;;;;;;;13.38;5.07;;;-1.70;99.90;;;;;;4955300;28;20030;-80
2022/01/19 04:12:09;;;;;;;16.55;5.55;;;-1.90;99.90;;;;;;4955131;28;20039;-80
2022/01/19 04:14:35;;;;;;;14.10;6.20;;;-3.60;99.90;;;;;;4955841;28;20114;-80
2022/01/19 04:17:04;;;;;;;10.23;5.38;;;-3.60;99.90;;;;;;4972568;28;20079;-80
2022/01/19 04:19:43;;;;;;;;;;;-3.70;99.90;;;;;;4955177;28;20038;-80
2022/01/19 04:22:13;;;;;;;9.85;4.43;;;-2.30;99.90;;;;;;4955517;28;19906;-80
2022/01/19 04:24:40;;;;;;;11.32;5.05;;;-3.90;99.90;;;;;;4954755;28;20496;-80
2022/01/19 04:29:48;;;;;;;9.05;4.43;;;-2.20;99.90;;;;;;4972386;28;20073;-80
2022/01/19 04:32:22;;;;;;;12.48;5.93;;;-2.40;99.90;;;;;;4986740;28;20046;-81
2022/01/19 04:34:49;;;;;;;14.40;5.07;;;-3.40;99.90;;;;;;4955984;28;20117;-81
2022/01/19 04:48:38;;;;;;;15.02;7.15;;;-2.70;99.90;;;;;;4970690;28;20123;-75
2022/01/19 05:04:52;;;;;;;21.73;9.00;;;-3.20;99.90;;;;;;4971273;28;20019;-78
2022/01/19 05:07:25;;;;;;;15.35;5.90;;;-3.20;99.90;;;;;;4952912;28;20062;-77
2022/01/19 05:15:18;;;;;;;13.35;5.45;;;-3.20;99.90;;;;;;4972602;28;20239;-81
2022/01/19 05:17:44;;;;;;;17.33;5.90;;;-3.40;99.90;;;;;;4954323;28;20484;-81
2022/01/19 05:20:11;;;;;;;19.90;6.28;;;-3.50;99.90;;;;;;4971813;28;20030;-76
2022/01/19 05:22:37;;;;;;;13.57;6.57;;;-3.60;99.90;;;;;;4953674;28;20167;-82
2022/01/19 05:25:03;;;;;;;13.95;7.53;;;-1.80;99.90;;;;;;4970732;28;20038;-80
2022/01/19 05:27:29;;;;;;;16.60;6.93;;;-3.40;99.90;;;;;;4955333;28;20267;-78
2022/01/19 05:29:55;;;;;;;17.40;7.30;;;-3.40;99.90;;;;;;4953439;29;20023;-78
2022/01/19 05:32:20;;;;;;;14.77;5.85;;;-1.90;99.90;;;;;;4935092;29;20126;-78
2022/01/19 05:34:46;;;;;;;16.83;7.05;;;-2.40;99.90;;;;;;4954295;29;20355;-79
2022/01/19 05:37:12;;;;;;;20.52;7.72;;;-3.50;99.90;;;;;;4951408;29;20039;-76
2022/01/19 05:39:37;;;;;;;16.65;6.55;;;-3.10;99.90;;;;;;4952948;29;20032;-88
2022/01/19 05:42:04;;;;;;;20.67;8.10;;;-2.80;99.90;;;;;;4952611;29;20043;-87
2022/01/19 05:44:29;;;;;;;21.60;7.60;;;-3.30;99.90;;;;;;4950685;29;20023;-78
2022/01/19 05:46:55;;;;;;;19.13;8.77;;;-3.30;99.90;;;;;;4953041;28;20038;-83
2022/01/19 05:49:20;;;;;;;14.65;6.18;;;-3.40;99.90;;;;;;4979648;28;20054;-91
2022/01/19 05:51:47;;;;;;;15.52;6.68;;;-2.40;99.90;;;;;;4977083;28;20051;-78
2022/01/19 05:54:14;;;;;;;25.50;8.93;;;-1.20;99.90;;;;;;4962390;28;20054;-79
2022/01/19 05:56:40;;;;;;;28.63;9.68;;;-3.60;99.90;;;;;;4980640;28;20027;-79
2022/01/19 05:59:05;;;;;;;30.23;11.73;;;-2.90;99.90;;;;;;4962609;28;20583;-78
2022/01/19 06:01:31;;;;;;;24.25;10.60;;;-1.90;99.90;;;;;;4973187;28;20035;-78
2022/01/19 06:03:57;;;;;;;22.23;7.18;;;-2.60;99.90;;;;;;4972146;28;20023;-77
2022/01/19 06:06:23;;;;;;;25.40;8.45;;;-1.80;99.90;;;;;;4971965;28;20110;-82
2022/01/19 06:09:00;;;;;;;17.00;7.63;;;-2.00;99.90;;;;;;4952263;28;20411;-80
2022/01/19 06:11:26;;;;;;;24.42;7.75;;;-2.00;99.90;;;;;;4951822;28;20508;-79
2022/01/19 06:13:52;;;;;;;17.48;7.18;;;-2.00;99.90;;;;;;4953232;28;20031;-79
2022/01/19 06:16:18;;;;;;;19.40;8.00;;;-1.40;99.90;;;;;;4952771;28;20038;-80
2022/01/19 06:18:43;;;;;;;16.88;8.57;;;-3.00;99.90;;;;;;4969724;28;20023;-80
2022/01/19 06:21:13;;;;;;;19.90;7.22;;;-2.30;99.90;;;;;;4971174;28;20030;-78
2022/01/19 06:23:39;;;;;;;;;;;-2.50;99.90;;;;;;4970855;28;20030;-79
2022/01/19 06:26:05;;;;;;;12.48;5.38;;;-1.90;99.90;;;;;;4972683;28;20358;-79
2022/01/19 06:28:33;;;;;;;12.52;6.05;;;-2.40;99.90;;;;;;4970692;28;20040;-79
2022/01/19 06:30:58;;;;;;;14.82;7.75;;;-2.90;99.90;;;;;;4952965;28;20030;-80
2022/01/19 06:33:24;;;;;;;18.40;7.05;;;-1.80;99.90;;;;;;4984383;28;20372;-80
2022/01/19 06:35:52;;;;;;;17.65;6.13;;;-2.60;99.90;;;;;;4988759;28;20037;-79
2022/01/19 06:38:18;;;;;;;14.98;7.30;;;-1.00;99.90;;;;;;4954293;28;20041;-85
2022/01/19 06:40:44;;;;;;;12.20;6.22;;;-2.00;99.90;;;;;;4978720;28;20027;-79
2022/01/19 06:43:09;;;;;;;25.27;7.53;;;-3.30;99.90;;;;;;4979682;28;20361;-79
2022/01/19 06:45:35;;;;;;;21.38;8.35;;;-4.00;99.90;;;;;;4978001;28;20043;-78
2022/01/19 06:48:01;;;;;;;19.00;8.00;;;-4.00;99.90;;;;;;4963608;28;20026;-77
2022/01/19 06:50:28;;;;;;;13.60;6.45;;;-4.10;99.90;;;;;;4980820;28;20042;-77
2022/01/19 06:52:53;;;;;;;11.20;5.38;;;-4.00;99.90;;;;;;4977387;28;20026;-77
2022/01/19 06:55:19;;;;;;;15.50;7.05;;;-3.90;99.90;;;;;;4979448;28;20050;-78
2022/01/19 06:57:45;;;;;;;17.55;7.75;;;-3.80;99.90;;;;;;4961658;28;20035;-78
2022/01/19 07:00:12;;;;;;;18.70;7.75;;;-3.90;99.90;;;;;;4994849;28;20100;-78
2022/01/19 07:02:38;;;;;;;17.88;7.57;;;-3.90;99.90;;;;;;4960996;28;20027;-77
2022/01/19 07:05:04;;;;;;;14.50;6.50;;;-4.00;99.90;;;;;;4962380;28;20203;-78
2022/01/19 07:07:31;;;;;;;21.65;7.55;;;-4.00;99.90;;;;;;4980202;28;20482;-84
2022/01/19 07:09:57;;;;;;;14.10;6.75;;;-4.10;99.90;;;;;;4979341;28;20033;-81
2022/01/19 07:12:26;;;;;;;18.58;7.55;;;-4.10;99.90;;;;;;4976990;28;20039;-80
2022/01/19 07:14:51;;;;;;;14.02;6.93;;;-4.00;99.90;;;;;;4979910;28;20049;-78
2022/01/19 07:17:17;;;;;;;20.10;8.32;;;-4.10;99.90;;;;;;4978622;28;20264;-79
2022/01/19 07:19:43;;;;;;;14.32;6.90;;;-4.00;99.90;;;;;;4959099;28;20667;-80
2022/01/19 07:22:09;;;;;;;18.63;6.72;;;-2.60;99.90;;;;;;4968846;28;20034;-75
2022/01/19 07:24:34;;;;;;;19.05;7.25;;;-3.40;99.90;;;;;;4963851;28;20023;-78
2022/01/19 07:27:00;;;;;;;13.70;6.50;;;-2.00;99.90;;;;;;4948598;28;20039;-78
2022/01/19 07:29:26;;;;;;;16.75;6.70;;;-3.20;99.90;;;;;;4948704;28;20081;-87
2022/01/19 07:31:55;;;;;;;20.13;8.13;;;-3.10;99.90;;;;;;4949478;28;20058;-76
2022/01/19 07:34:20;;;;;;;20.52;6.80;;;-3.50;99.90;;;;;;4967597;28;20019;-76
2022/01/19 07:36:46;;;;;;;15.60;6.50;;;-2.80;99.90;;;;;;4967096;28;20061;-76
2022/01/19 07:39:12;;;;;;;16.80;5.68;;;-1.90;99.90;;;;;;4967275;28;20023;-77
2022/01/19 07:41:38;;;;;;;22.25;6.97;;;-3.60;99.90;;;;;;4965057;28;20081;-75
2022/01/19 07:44:05;;;;;;;14.95;5.05;;;-2.10;99.90;;;;;;4963651;28;20022;-76
2022/01/19 07:46:31;;;;;;;12.25;6.82;;;-3.20;99.90;;;;;;4966213;28;20173;-79
2022/01/19 07:48:56;;;;;;;16.02;6.03;;;-2.50;99.90;;;;;;4968471;28;20114;-77
2022/01/19 07:51:22;;;;;;;12.30;4.78;;;-3.40;99.90;;;;;;4968734;28;20043;-77
2022/01/19 07:53:48;;;;;;;11.75;5.75;;;-3.50;99.90;;;;;;4968558;28;20062;-77
2022/01/19 07:56:13;;;;;;;18.75;8.68;;;-1.90;99.90;;;;;;4968165;28;20027;-77
2022/01/19 07:58:39;;;;;;;15.65;6.57;;;-2.60;99.90;;;;;;4969151;28;20098;-77
2022/01/19 08:01:05;;;;;;;14.15;6.57;;;-3.40;99.90;;;;;;4964687;28;20023;-79
2022/01/19 08:03:30;;;;;;;16.67;6.25;;;-3.40;99.90;;;;;;4968445;28;20535;-79
2022/01/19 08:05:56;;;;;;;23.88;12.57;;;-3.10;99.90;;;;;;4967773;28;20029;-78
2022/01/19 08:08:21;;;;;;;18.52;9.77;;;-2.00;99.90;;;;;;4966262;28;20074;-78
2022/01/19 08:10:48;;;;;;;23.88;10.02;;;-3.00;99.90;;;;;;4965631;28;20031;-78
2022/01/19 08:13:15;;;;;;;22.52;9.27;;;-1.80;99.90;;;;;;4968222;28;20031;-78
2022/01/19 08:15:40;;;;;;;20.00;9.82;;;-0.30;99.90;;;;;;4967978;28;20046;-78
2022/01/19 08:18:06;;;;;;;19.05;8.27;;;-2.10;99.90;;;;;;4968462;28;20027;-78
2022/01/19 08:20:33;;;;;;;29.52;11.05;;;-1.90;99.90;;;;;;4967904;28;20027;-79
2022/01/19 08:22:59;;;;;;;24.73;12.32;;;-1.50;99.90;;;;;;4968792;28;20034;-77
2022/01/19 08:25:24;;;;;;;27.65;10.75;;;-2.70;99.90;;;;;;4951448;28;20022;-79
2022/01/19 08:27:50;;;;;;;20.20;9.98;;;-2.60;99.90;;;;;;4932530;28;20024;-82
2022/01/19 08:30:16;;;;;;;33.58;13.63;;;-1.80;99.90;;;;;;4950997;28;20077;-81
2022/01/19 08:32:43;;;;;;;46.53;17.52;;;-0.90;99.90;;;;;;4950300;28;20058;-79
2022/01/19 08:35:09;;;;;;;51.30;16.70;;;-0.60;99.90;;;;;;4967484;28;20041;-78
2022/01/19 08:37:36;;;;;;;52.13;16.67;;;-1.30;99.90;;;;;;4967048;28;20031;-79
2022/01/19 08:40:04;;;;;;;67.32;19.63;;;-1.00;99.90;;;;;;4965182;28;20039;-81
2022/01/19 08:42:30;;;;;;;77.05;22.33;;;-0.70;99.90;;;;;;4951219;28;20129;-80
2022/01/19 08:44:56;;;;;;;68.93;21.80;;;-0.20;99.90;;;;;;4970446;28;20114;-79
2022/01/19 08:47:23;;;;;;;55.10;20.42;;;-0.10;99.90;;;;;;4953114;28;20038;-78
2022/01/19 08:49:48;;;;;;;57.40;17.90;;;0.10;99.90;;;;;;4970045;28;20062;-79
2022/01/19 08:52:16;;;;;;;40.92;17.38;;;0.10;99.90;;;;;;4953749;28;20073;-78
2022/01/19 08:54:42;;;;;;;52.80;18.30;;;0.20;99.90;;;;;;4972169;28;20022;-79
2022/01/19 08:57:08;;;;;;;48.15;15.70;;;0.30;99.90;;;;;;4954684;28;20094;-78
2022/01/19 08:59:34;;;;;;;51.47;16.52;;;0.40;99.90;;;;;;4953745;28;20038;-77
2022/01/19 09:01:59;;;;;;;50.05;17.98;;;0.40;99.90;;;;;;4954155;28;20113;-78
2022/01/19 09:04:25;;;;;;;46.53;17.65;;;0.40;99.90;;;;;;4971012;28;20062;-81
2022/01/19 09:06:53;;;;;;;42.63;16.05;;;0.50;99.90;;;;;;4971667;28;20395;-82
2022/01/19 09:09:19;;;;;;;47.78;16.88;;;0.50;99.90;;;;;;4953940;28;20562;-79
2022/01/19 09:11:44;;;;;;;52.28;16.90;;;0.80;99.90;;;;;;4970999;28;20043;-79
2022/01/19 09:14:10;;;;;;;46.08;16.17;;;0.70;99.90;;;;;;4955222;28;20532;-80
2022/01/19 09:16:37;;;;;;;54.28;20.95;;;0.60;99.90;;;;;;4959774;28;20042;-88
2022/01/19 09:19:04;;;;;;;48.75;16.48;;;0.60;99.90;;;;;;4962896;28;20452;-78
2022/01/19 09:21:30;;;;;;;46.00;15.38;;;1.10;99.90;;;;;;4980177;28;20039;-84
2022/01/19 09:23:56;;;;;;;45.15;18.48;;;1.10;99.90;;;;;;4963557;28;20097;-79
2022/01/19 09:26:22;;;;;;;47.95;16.42;;;0.60;99.90;;;;;;4963643;28;20258;-82
2022/01/19 09:28:48;;;;;;;44.33;18.98;;;0.70;99.90;;;;;;4981631;28;20027;-82
2022/01/19 09:31:17;;;;;;;46.22;16.70;;;0.80;99.90;;;;;;4964281;28;20067;-82
2022/01/19 09:33:44;;;;;;;37.47;13.52;;;0.80;99.90;;;;;;4963055;28;20069;-83
2022/01/19 09:36:31;;;;;;;37.63;13.82;;;0.70;99.90;;;;;;4981944;28;20226;-85
2022/01/19 09:38:58;;;;;;;39.58;12.70;;;0.80;99.90;;;;;;4980947;28;20037;-83
2022/01/19 09:41:24;;;;;;;37.90;13.07;;;1.40;99.90;;;;;;4964430;28;20054;-80
2022/01/19 09:43:50;;;;;;;39.15;13.50;;;0.60;99.90;;;;;;4980702;28;20022;-80
2022/01/19 09:46:16;;;;;;;43.67;15.65;;;0.60;99.90;;;;;;4979381;28;20199;-83
2022/01/19 09:48:42;;;;;;;46.72;16.75;;;0.70;99.90;;;;;;4963781;28;20031;-83
2022/01/19 09:51:08;;;;;;;48.50;15.13;;;0.80;99.90;;;;;;4979681;28;20041;-81
2022/01/19 09:53:34;;;;;;;44.30;15.88;;;0.90;99.90;;;;;;4969026;28;20026;-83
2022/01/19 09:56:01;;;;;;;40.70;14.52;;;0.90;99.90;;;;;;4951424;28;20506;-84
2022/01/19 09:58:27;;;;;;;38.10;14.68;;;0.90;99.90;;;;;;4949971;28;20041;-82
2022/01/19 10:00:53;;;;;;;39.65;14.80;;;1.00;99.90;;;;;;4967930;28;20035;-82
2022/01/19 10:03:20;;;;;;;40.22;14.15;;;1.10;99.90;;;;;;4953936;28;20057;-82
2022/01/19 10:06:12;;;;;;;35.17;14.50;;;1.20;99.90;;;;;;4952050;28;20030;-81
2022/01/19 10:08:37;;;;;;;32.53;14.02;;;1.30;99.90;;;;;;4951028;28;20458;-79
2022/01/19 10:11:16;;;;;;;35.97;13.10;;;1.50;99.90;;;;;;4951914;28;20185;-77
2022/01/19 10:19:22;;;;;;;28.90;13.13;;;2.20;99.90;;;;;;4972135;28;20041;-79
2022/01/19 10:21:59;;;;;;;27.63;9.95;;;2.40;99.90;;;;;;4953527;28;20053;-77
2022/01/19 10:24:37;;;;;;;29.05;10.88;;;2.40;99.90;;;;;;4952518;28;20042;-79
2022/01/19 10:27:29;;;;;;;30.50;11.95;;;2.50;99.90;;;;;;4952274;28;20030;-78
2022/01/19 10:30:04;;;;;;;22.35;9.70;;;2.60;99.90;;;;;;4970904;28;20054;-78
2022/01/19 10:32:35;;;;;;;28.00;10.55;;;2.60;99.90;;;;;;4965781;28;20054;-82
2022/01/19 10:35:18;;;;;;;26.45;9.63;;;2.70;99.90;;;;;;4981378;28;20022;-80
2022/01/19 10:37:45;;;;;;;28.13;10.45;;;2.90;99.90;;;;;;4981987;28;20034;-78
2022/01/19 10:40:19;;;;;;;22.75;10.00;;;3.10;99.90;;;;;;4978247;28;20477;-81
2022/01/19 10:42:47;;;;;;;23.23;9.77;;;3.10;99.90;;;;;;4969380;28;20019;-81
2022/01/19 10:45:14;;;;;;;24.40;10.15;;;3.10;99.90;;;;;;4988437;28;20171;-82
2022/01/19 10:47:55;;;;;;;21.65;8.90;;;3.30;99.90;;;;;;4978723;28;20097;-81
2022/01/19 10:50:22;;;;;;;23.65;9.45;;;3.50;99.90;;;;;;4981831;28;20041;-84
2022/01/19 10:52:49;;;;;;;25.92;9.52;;;3.60;99.90;;;;;;4985259;28;20031;-79
2022/01/19 10:55:20;;;;;;;22.65;8.15;;;3.70;99.90;;;;;;4979848;28;20023;-81
2022/01/19 10:57:47;;;;;;;20.15;9.05;;;3.90;99.90;;;;;;4962599;28;20023;-81
2022/01/19 11:00:31;;;;;;;17.83;8.45;;;4.10;99.90;;;;;;4980198;28;20030;-78
2022/01/19 11:03:17;;;;;;;18.77;8.32;;;4.20;99.90;;;;;;4985718;28;20031;-80
2022/01/19 11:05:48;;;;;;;22.30;9.13;;;4.40;99.90;;;;;;4976774;28;20062;-78
2022/01/19 11:08:16;;;;;;;19.90;8.02;;;4.50;99.90;;;;;;4976760;28;20018;-79
2022/01/19 11:10:47;;;;;;;19.25;8.32;;;4.40;99.90;;;;;;4979236;28;20015;-78
2022/01/19 11:13:15;;;;;;;20.23;9.05;;;4.50;99.90;;;;;;4980079;28;20054;-78
2022/01/19 11:15:43;;;;;;;18.02;8.18;;;3.80;99.90;;;;;;4981664;28;20023;-80
2022/01/19 11:18:10;;;;;;;22.65;10.20;;;3.90;99.90;;;;;;4977132;28;20030;-79
2022/01/19 11:20:45;;;;;;;22.42;9.38;;;3.90;99.90;;;;;;4958605;28;20038;-78
2022/01/19 11:23:40;;;;;;;20.30;8.55;;;3.70;99.90;;;;;;4970291;28;20030;-77
2022/01/19 11:26:15;;;;;;;19.02;8.00;;;3.70;99.90;;;;;;4969964;28;20103;-80
2022/01/19 11:28:46;;;;;;;18.58;8.40;;;3.80;99.90;;;;;;4952771;28;20321;-80
2022/01/19 11:31:37;;;;;;;18.88;8.60;;;3.90;99.90;;;;;;4973047;28;20296;-78
2022/01/19 11:34:03;;;;;;;20.27;10.05;;;3.80;99.90;;;;;;4971583;28;20047;-80
2022/01/19 11:36:34;;;;;;;18.63;7.82;;;3.80;99.90;;;;;;4973272;28;20022;-81
2022/01/19 11:39:07;;;;;;;17.40;8.60;;;3.80;99.90;;;;;;4953327;28;20034;-80
2022/01/19 11:41:39;;;;;;;28.33;10.32;;;3.80;99.90;;;;;;4976946;28;20150;-79
2022/01/19 11:44:08;;;;;;;22.85;8.88;;;3.80;99.90;;;;;;4970116;28;20034;-77
2022/01/19 11:46:39;;;;;;;23.23;9.07;;;3.80;99.90;;;;;;4967016;28;20081;-78
2022/01/19 11:49:07;;;;;;;17.90;8.88;;;3.70;99.90;;;;;;4949794;28;20069;-79
2022/01/19 11:51:39;;;;;;;21.52;9.82;;;3.70;99.90;;;;;;4967967;28;20031;-80
2022/01/19 11:54:04;;;;;;;17.63;7.60;;;4.10;99.90;;;;;;4968010;28;20416;-78
2022/01/19 11:56:30;;;;;;;17.48;7.95;;;3.70;99.90;;;;;;4984375;28;20129;-81
2022/01/19 11:59:09;;;;;;;20.88;9.48;;;3.70;99.90;;;;;;4968753;28;20073;-77
2022/01/19 12:01:37;;;;;;;19.30;8.10;;;3.70;99.90;;;;;;4967381;28;20086;-78
2022/01/19 12:04:18;;;;;;;18.20;8.38;;;3.60;99.90;;;;;;4967611;28;20031;-79
2022/01/19 12:06:44;;;;;;;25.17;8.50;;;3.60;99.90;;;;;;4967656;28;20038;-80
2022/01/19 12:09:14;;;;;;;22.75;8.27;;;3.70;99.90;;;;;;4967510;28;20058;-78
2022/01/19 12:11:51;;;;;;;19.60;7.72;;;3.60;99.90;;;;;;4969584;28;20070;-79
2022/01/19 12:14:21;;;;;;;24.10;10.55;;;3.60;99.90;;;;;;4971886;28;20507;-81
2022/01/19 12:19:29;;;;;;;20.10;7.70;;;3.80;99.90;;;;;;4976989;28;20035;-78
2022/01/19 12:21:57;;;;;;;;;;;3.70;99.90;;;;;;4974871;28;20093;-79
2022/01/19 12:24:37;;;;;;;22.00;7.97;;;3.70;99.90;;;;;;4983040;28;19952;-79
2022/01/19 12:27:15;;;;;;;24.17;8.88;;;3.60;99.90;;;;;;4977656;28;20034;-79
2022/01/19 12:29:45;;;;;;;23.02;9.65;;;3.60;99.90;;;;;;4971845;28;20487;-78
2022/01/19 12:32:17;;;;;;;24.67;9.55;;;3.60;99.90;;;;;;4974713;28;20126;-75
2022/01/19 12:34:47;;;;;;;21.98;7.82;;;3.60;99.90;;;;;;4958413;28;20039;-80
2022/01/19 12:38:07;;;;;;;20.23;6.90;;;3.60;99.90;;;;;;4966184;28;20099;-80
2022/01/19 12:40:40;;;;;;;22.45;8.02;;;2.60;99.90;;;;;;4934370;28;20077;-78
2022/01/19 12:43:36;;;;;;;22.58;8.90;;;3.60;99.90;;;;;;4992362;28;20085;-78
2022/01/19 12:46:05;;;;;;;18.58;7.75;;;3.70;99.90;;;;;;4992996;28;20026;-78
2022/01/19 12:48:46;;;;;;;24.38;8.68;;;3.70;99.90;;;;;;4994230;28;20050;-79
2022/01/19 12:51:41;;;;;;;23.90;8.10;;;4.00;99.90;;;;;;4990747;28;20073;-80
2022/01/19 12:54:09;;;;;;;20.70;7.78;;;3.90;99.90;;;;;;4994225;28;20070;-79
2022/01/19 12:56:35;;;;;;;21.13;8.75;;;3.90;99.90;;;;;;4998609;28;20085;-79
2022/01/19 12:59:07;;;;;;;24.92;8.88;;;3.70;99.90;;;;;;4991468;28;20086;-78
2022/01/19 13:01:34;;;;;;;21.38;8.68;;;3.40;99.90;;;;;;4993806;28;20088;-80
2022/01/19 13:04:00;;;;;;;23.40;10.50;;;3.40;99.90;;;;;;4988749;28;20050;-79
2022/01/19 13:06:29;;;;;;;26.38;10.05;;;3.30;99.90;;;;;;4971507;28;20034;-79
2022/01/19 13:09:04;;;;;;;;;;;3.20;99.90;;;;;;4968592;28;20445;-80
2022/01/19 13:11:41;;;;;;;19.38;8.25;;;3.20;99.90;;;;;;4986822;28;19914;-76
2022/01/19 13:14:13;;;;;;;19.42;9.65;;;3.10;99.90;;;;;;4984306;28;20033;-81
2022/01/19 13:16:49;;;;;;;22.60;9.48;;;3.10;99.90;;;;;;4971651;28;20129;-76
2022/01/19 13:19:25;;;;;;;23.35;9.15;;;3.00;99.90;;;;;;4981114;28;20680;-78
2022/01/19 13:22:04;;;;;;;27.75;10.05;;;2.90;99.90;;;;;;4964278;28;20030;-78
2022/01/19 13:24:33;;;;;;;29.65;13.05;;;3.00;99.90;;;;;;4982604;28;20090;-79
2022/01/19 13:27:04;;;;;;;26.58;10.55;;;2.90;99.90;;;;;;4966045;28;20027;-80
2022/01/19 13:29:42;;;;;;;30.98;11.30;;;2.90;99.90;;;;;;4981002;28;20026;-80
2022/01/19 13:32:17;;;;;;;30.98;9.77;;;3.10;99.90;;;;;;4964165;28;20192;-80
2022/01/19 13:34:55;;;;;;;21.98;8.63;;;3.10;99.90;;;;;;4954936;28;20027;-79
2022/01/19 13:37:24;;;;;;;25.23;9.02;;;3.10;99.90;;;;;;4972252;28;20025;-77
2022/01/19 13:40:06;;;;;;;24.35;7.90;;;3.10;99.90;;;;;;4975436;28;20018;-79
2022/01/19 13:42:36;;;;;;;23.00;8.35;;;3.00;99.90;;;;;;4981671;28;20030;-77
2022/01/19 13:45:09;;;;;;;20.55;8.27;;;3.00;99.90;;;;;;4957251;28;20030;-79
2022/01/19 13:47:53;;;;;;;23.95;9.90;;;2.90;99.90;;;;;;4968175;28;20222;-79
2022/01/19 13:50:19;;;;;;;20.48;8.27;;;2.90;99.90;;;;;;4984384;28;20097;-79
2022/01/19 13:52:45;;;;;;;19.00;8.80;;;2.90;99.90;;;;;;4976041;28;20038;-78
2022/01/19 13:55:19;;;;;;;21.67;8.40;;;2.80;99.90;;;;;;4979892;28;20030;-80
2022/01/19 13:57:44;;;;;;;22.33;8.20;;;2.80;99.90;;;;;;4972105;28;20058;-79
2022/01/19 14:00:15;;;;;;;20.30;7.43;;;2.70;99.90;;;;;;4976091;28;20031;-80
2022/01/19 14:02:51;;;;;;;21.25;8.93;;;2.70;99.90;;;;;;4955411;28;20038;-81
2022/01/19 14:05:17;;;;;;;22.25;7.60;;;2.70;99.90;;;;;;4956986;28;20031;-80
2022/01/19 14:07:46;;;;;;;16.35;7.70;;;2.70;99.90;;;;;;4959577;28;20509;-79
2022/01/19 14:10:12;;;;;;;17.77;7.78;;;2.80;99.90;;;;;;4979867;28;20031;-79
2022/01/19 14:12:38;;;;;;;19.05;7.75;;;2.70;99.90;;;;;;4977389;28;20474;-80
2022/01/19 14:15:07;;;;;;;15.00;6.82;;;2.80;99.90;;;;;;4976600;28;20026;-79
2022/01/19 14:17:39;;;;;;;22.17;9.00;;;2.80;99.90;;;;;;4979146;28;20019;-77
2022/01/19 14:20:14;;;;;;;17.00;7.28;;;2.80;99.90;;;;;;4955282;28;20086;-78
2022/01/19 14:22:40;;;;;;;11.48;5.05;;;2.70;99.90;;;;;;4981052;28;20038;-80